sensor_id;sensor_type;location;lat;lon;timestamp;pressure;altitude;pressure_sealevel;temperature;humidity
63493;BME280;49638;47.526;10.028;2023-03-26T00:02:49;91293.66;;;6.07;77.94
63493;BME280;49638;47.526;10.028;2023-03-26T00:06:00;91285.00;;;6.06;78.35
63493;BME280;49638;47.526;10.028;2023-03-26T00:09:02;91288.06;;;6.03;78.06
63493;BME280;49638;47.526;10.028;2023-03-26T00:12:03;91281.69;;;5.99;78.04
63493;BME280;49638;47.526;10.028;2023-03-26T00:15:04;91290.78;;;5.97;78.45
63493;BME280;49638;47.526;10.028;2023-03-26T00:18:04;91283.38;;;5.93;78.41
63493;BME280;49638;47.526;10.028;2023-03-26T00:21:06;91282.13;;;5.96;78.23
63493;BME280;49638;47.526;10.028;2023-03-26T00:24:10;91282.94;;;5.97;78.08
63493;BME280;49638;47.526;10.028;2023-03-26T00:27:13;91263.63;;;5.91;78.03
63493;BME280;49638;47.526;10.028;2023-03-26T00:30:14;91253.81;;;5.86;78.15
63493;BME280;49638;47.526;10.028;2023-03-26T00:33:16;91266.63;;;5.95;78.11
63493;BME280;49638;47.526;10.028;2023-03-26T00:36:19;91263.44;;;5.92;78.13
63493;BME280;49638;47.526;10.028;2023-03-26T00:39:20;91263.63;;;5.91;77.99
63493;BME280;49638;47.526;10.028;2023-03-26T00:42:22;91252.06;;;5.80;77.91
63493;BME280;49638;47.526;10.028;2023-03-26T00:45:23;91262.91;;;5.84;78.24
63493;BME280;49638;47.526;10.028;2023-03-26T00:48:23;91263.25;;;5.76;78.08
63493;BME280;49638;47.526;10.028;2023-03-26T00:51:24;91257.09;;;5.82;78.27
63493;BME280;49638;47.526;10.028;2023-03-26T00:54:25;91255.72;;;5.79;78.23
63493;BME280;49638;47.526;10.028;2023-03-26T00:57:26;91235.88;;;5.72;78.11
63493;BME280;49638;47.526;10.028;2023-03-26T01:00:31;91247.88;;;5.79;78.05
63493;BME280;49638;47.526;10.028;2023-03-26T01:03:35;91241.94;;;5.72;78.03
63493;BME280;49638;47.526;10.028;2023-03-26T01:06:38;91242.97;;;5.83;78.17
63493;BME280;49638;47.526;10.028;2023-03-26T01:09:43;91241.38;;;5.82;78.46
63493;BME280;49638;47.526;10.028;2023-03-26T01:12:49;91214.13;;;5.71;78.18
63493;BME280;49638;47.526;10.028;2023-03-26T01:15:50;91230.19;;;5.86;78.23
63493;BME280;49638;47.526;10.028;2023-03-26T01:18:52;91240.03;;;5.91;78.05
63493;BME280;49638;47.526;10.028;2023-03-26T01:21:53;91217.09;;;5.86;78.02
63493;BME280;49638;47.526;10.028;2023-03-26T01:24:53;91228.44;;;5.99;78.29
63493;BME280;49638;47.526;10.028;2023-03-26T01:27:55;91225.56;;;6.00;78.14
63493;BME280;49638;47.526;10.028;2023-03-26T01:34:20;91216.69;;;6.01;79.08
63493;BME280;49638;47.526;10.028;2023-03-26T01:40:34;91213.94;;;6.08;78.95
63493;BME280;49638;47.526;10.028;2023-03-26T01:43:46;91207.44;;;6.10;78.70
63493;BME280;49638;47.526;10.028;2023-03-26T01:46:50;91205.38;;;6.12;78.58
63493;BME280;49638;47.526;10.028;2023-03-26T01:49:51;91196.47;;;6.13;78.44
63493;BME280;49638;47.526;10.028;2023-03-26T01:52:51;91179.59;;;6.09;78.60
63493;BME280;49638;47.526;10.028;2023-03-26T01:56:04;91191.13;;;6.20;78.32
63493;BME280;49638;47.526;10.028;2023-03-26T02:02:46;91188.63;;;6.25;78.22
63493;BME280;49638;47.526;10.028;2023-03-26T02:05:53;91185.66;;;6.22;78.43
63493;BME280;49638;47.526;10.028;2023-03-26T02:09:00;91186.53;;;6.27;78.17
63493;BME280;49638;47.526;10.028;2023-03-26T02:12:03;91187.00;;;6.24;78.22
63493;BME280;49638;47.526;10.028;2023-03-26T02:15:05;91174.13;;;6.23;78.41
63493;BME280;49638;47.526;10.028;2023-03-26T02:18:06;91168.63;;;6.24;78.29
63493;BME280;49638;47.526;10.028;2023-03-26T02:21:21;91162.50;;;6.19;78.46
63493;BME280;49638;47.526;10.028;2023-03-26T02:24:22;91166.13;;;6.18;78.78
63493;BME280;49638;47.526;10.028;2023-03-26T02:27:22;91176.75;;;6.23;79.02
63493;BME280;49638;47.526;10.028;2023-03-26T02:30:24;91179.38;;;6.23;79.06
63493;BME280;49638;47.526;10.028;2023-03-26T02:33:25;91168.19;;;6.27;79.08
63493;BME280;49638;47.526;10.028;2023-03-26T02:36:25;91147.66;;;6.24;78.98
63493;BME280;49638;47.526;10.028;2023-03-26T02:39:26;91126.91;;;6.23;79.12
63493;BME280;49638;47.526;10.028;2023-03-26T02:42:27;91122.09;;;6.20;78.89
63493;BME280;49638;47.526;10.028;2023-03-26T02:45:27;91111.28;;;6.16;78.83
63493;BME280;49638;47.526;10.028;2023-03-26T02:48:27;91105.69;;;6.12;79.41
63493;BME280;49638;47.526;10.028;2023-03-26T02:51:27;91096.81;;;6.02;79.81
63493;BME280;49638;47.526;10.028;2023-03-26T02:54:28;91091.69;;;5.95;79.73
63493;BME280;49638;47.526;10.028;2023-03-26T02:57:28;91102.75;;;5.97;79.83
63493;BME280;49638;47.526;10.028;2023-03-26T03:00:29;91097.50;;;5.97;79.89
63493;BME280;49638;47.526;10.028;2023-03-26T03:03:29;91082.47;;;5.92;80.07
63493;BME280;49638;47.526;10.028;2023-03-26T03:06:29;91070.34;;;5.80;80.20
63493;BME280;49638;47.526;10.028;2023-03-26T03:09:30;91071.94;;;5.81;80.59
63493;BME280;49638;47.526;10.028;2023-03-26T03:12:30;91053.72;;;5.74;80.66
63493;BME280;49638;47.526;10.028;2023-03-26T03:15:30;91049.16;;;5.69;81.11
63493;BME280;49638;47.526;10.028;2023-03-26T03:18:31;91046.66;;;5.63;81.00
63493;BME280;49638;47.526;10.028;2023-03-26T03:21:31;91051.00;;;5.57;81.49
63493;BME280;49638;47.526;10.028;2023-03-26T03:24:31;91044.41;;;5.55;81.63
63493;BME280;49638;47.526;10.028;2023-03-26T03:27:33;91041.44;;;5.51;81.77
63493;BME280;49638;47.526;10.028;2023-03-26T03:30:34;91036.66;;;5.48;81.99
63493;BME280;49638;47.526;10.028;2023-03-26T03:33:34;91035.84;;;5.48;82.27
63493;BME280;49638;47.526;10.028;2023-03-26T03:36:35;91024.59;;;5.47;82.39
63493;BME280;49638;47.526;10.028;2023-03-26T03:39:37;91020.13;;;5.48;82.15
63493;BME280;49638;47.526;10.028;2023-03-26T03:42:37;91017.28;;;5.49;82.29
63493;BME280;49638;47.526;10.028;2023-03-26T03:45:38;91025.03;;;5.44;82.51
63493;BME280;49638;47.526;10.028;2023-03-26T03:48:38;91008.16;;;5.40;82.81
63493;BME280;49638;47.526;10.028;2023-03-26T03:51:38;91007.69;;;5.43;83.02
63493;BME280;49638;47.526;10.028;2023-03-26T03:54:40;90984.72;;;5.33;83.07
63493;BME280;49638;47.526;10.028;2023-03-26T03:57:40;90986.41;;;5.39;83.03
63493;BME280;49638;47.526;10.028;2023-03-26T04:00:40;90989.59;;;5.41;82.89
63493;BME280;49638;47.526;10.028;2023-03-26T04:03:41;90977.66;;;5.34;83.48
63493;BME280;49638;47.526;10.028;2023-03-26T04:06:44;90982.44;;;5.37;83.65
63493;BME280;49638;47.526;10.028;2023-03-26T04:09:45;90975.03;;;5.34;83.82
63493;BME280;49638;47.526;10.028;2023-03-26T04:12:45;90966.97;;;5.24;84.47
63493;BME280;49638;47.526;10.028;2023-03-26T04:15:46;90980.59;;;5.26;84.41
63493;BME280;49638;47.526;10.028;2023-03-26T04:18:46;90977.78;;;5.27;84.39
63493;BME280;49638;47.526;10.028;2023-03-26T04:21:46;90967.06;;;5.29;84.45
63493;BME280;49638;47.526;10.028;2023-03-26T04:24:48;90963.41;;;5.30;84.18
63493;BME280;49638;47.526;10.028;2023-03-26T04:27:49;90962.94;;;5.33;84.24
63493;BME280;49638;47.526;10.028;2023-03-26T04:30:49;90962.47;;;5.36;84.56
63493;BME280;49638;47.526;10.028;2023-03-26T04:33:52;90947.09;;;5.39;84.18
63493;BME280;49638;47.526;10.028;2023-03-26T04:36:54;90953.72;;;5.42;83.86
63493;BME280;49638;47.526;10.028;2023-03-26T04:39:54;90953.50;;;5.43;84.06
63493;BME280;49638;47.526;10.028;2023-03-26T04:42:55;90952.13;;;5.41;84.30
63493;BME280;49638;47.526;10.028;2023-03-26T04:45:57;90946.88;;;5.41;84.07
63493;BME280;49638;47.526;10.028;2023-03-26T04:48:58;90945.06;;;5.41;84.15
63493;BME280;49638;47.526;10.028;2023-03-26T04:51:58;90925.25;;;5.34;84.10
63493;BME280;49638;47.526;10.028;2023-03-26T04:54:59;90924.22;;;5.35;83.84
63493;BME280;49638;47.526;10.028;2023-03-26T04:57:59;90925.25;;;5.34;84.08
63493;BME280;49638;47.526;10.028;2023-03-26T05:01:02;90921.94;;;5.38;84.20
63493;BME280;49638;47.526;10.028;2023-03-26T05:04:02;90904.50;;;5.32;84.31
63493;BME280;49638;47.526;10.028;2023-03-26T05:07:03;90916.69;;;5.38;84.47
63493;BME280;49638;47.526;10.028;2023-03-26T05:10:04;90907.78;;;5.39;84.15
63493;BME280;49638;47.526;10.028;2023-03-26T05:13:04;90907.78;;;5.39;84.12
63493;BME280;49638;47.526;10.028;2023-03-26T05:16:05;90910.19;;;5.41;84.32
63493;BME280;49638;47.526;10.028;2023-03-26T05:19:05;90901.66;;;5.34;84.18
63493;BME280;49638;47.526;10.028;2023-03-26T05:22:06;90894.47;;;5.41;84.12
63493;BME280;49638;47.526;10.028;2023-03-26T05:25:06;90881.47;;;5.46;83.83
63493;BME280;49638;47.526;10.028;2023-03-26T05:28:09;90878.03;;;5.45;83.77
63493;BME280;49638;47.526;10.028;2023-03-26T05:31:09;90877.72;;;5.42;83.88
63493;BME280;49638;47.526;10.028;2023-03-26T05:34:10;90871.34;;;5.38;84.49
63493;BME280;49638;47.526;10.028;2023-03-26T05:37:10;90874.88;;;5.43;84.09
63493;BME280;49638;47.526;10.028;2023-03-26T05:40:11;90869.41;;;5.45;84.26
63493;BME280;49638;47.526;10.028;2023-03-26T05:43:13;90851.50;;;5.42;84.16
63493;BME280;49638;47.526;10.028;2023-03-26T05:46:14;90824.75;;;5.40;84.29
63493;BME280;49638;47.526;10.028;2023-03-26T05:49:14;90814.88;;;5.30;84.40
63493;BME280;49638;47.526;10.028;2023-03-26T05:52:14;90811.69;;;5.28;84.58
63493;BME280;49638;47.526;10.028;2023-03-26T05:55:17;90770.31;;;5.13;85.10
63493;BME280;49638;47.526;10.028;2023-03-26T05:58:19;90803.50;;;5.25;85.27
63493;BME280;49638;47.526;10.028;2023-03-26T06:01:19;90780.72;;;5.25;85.13
63493;BME280;49638;47.526;10.028;2023-03-26T06:04:19;90789.38;;;5.26;84.90
63493;BME280;49638;47.526;10.028;2023-03-26T06:07:20;90770.22;;;5.37;84.44
63493;BME280;49638;47.526;10.028;2023-03-26T06:10:20;90756.41;;;5.41;84.21
63493;BME280;49638;47.526;10.028;2023-03-26T06:13:20;90760.84;;;5.41;84.28
63493;BME280;49638;47.526;10.028;2023-03-26T06:16:21;90756.97;;;5.43;84.18
63493;BME280;49638;47.526;10.028;2023-03-26T06:19:21;90742.50;;;5.41;84.17
63493;BME280;49638;47.526;10.028;2023-03-26T06:22:21;90735.19;;;5.43;84.29
63493;BME280;49638;47.526;10.028;2023-03-26T06:25:22;90728.47;;;5.47;84.16
63493;BME280;49638;47.526;10.028;2023-03-26T06:28:22;90727.25;;;5.38;84.81
63493;BME280;49638;47.526;10.028;2023-03-26T06:31:22;90735.66;;;5.40;85.37
63493;BME280;49638;47.526;10.028;2023-03-26T06:34:23;90734.06;;;5.39;85.34
63493;BME280;49638;47.526;10.028;2023-03-26T06:37:23;90744.78;;;5.37;85.62
63493;BME280;49638;47.526;10.028;2023-03-26T06:40:24;90743.03;;;5.43;85.34
63493;BME280;49638;47.526;10.028;2023-03-26T06:43:24;90751.16;;;5.41;85.42
63493;BME280;49638;47.526;10.028;2023-03-26T06:46:25;90759.66;;;5.49;85.93
63493;BME280;49638;47.526;10.028;2023-03-26T06:49:25;90740.41;;;5.43;85.89
63493;BME280;49638;47.526;10.028;2023-03-26T06:52:25;90756.63;;;5.57;85.88
63493;BME280;49638;47.526;10.028;2023-03-26T06:55:27;90761.56;;;5.53;85.63
63493;BME280;49638;47.526;10.028;2023-03-26T06:58:28;90782.47;;;5.65;85.59
63493;BME280;49638;47.526;10.028;2023-03-26T07:01:28;90770.41;;;5.64;85.55
63493;BME280;49638;47.526;10.028;2023-03-26T07:04:28;90780.25;;;5.74;85.60
63493;BME280;49638;47.526;10.028;2023-03-26T07:07:29;90762.38;;;5.70;85.42
63493;BME280;49638;47.526;10.028;2023-03-26T07:10:29;90777.81;;;5.84;85.46
63493;BME280;49638;47.526;10.028;2023-03-26T07:13:30;90779.88;;;5.82;85.71
63493;BME280;49638;47.526;10.028;2023-03-26T07:16:30;90775.84;;;5.91;85.50
63493;BME280;49638;47.526;10.028;2023-03-26T07:19:30;90760.50;;;5.83;84.56
63493;BME280;49638;47.526;10.028;2023-03-26T07:22:31;90760.59;;;5.88;84.28
63493;BME280;49638;47.526;10.028;2023-03-26T07:25:31;90753.03;;;5.91;83.48
63493;BME280;49638;47.526;10.028;2023-03-26T07:28:39;90737.66;;;5.95;83.63
63493;BME280;49638;47.526;10.028;2023-03-26T07:31:51;90718.38;;;5.89;84.43
63493;BME280;49638;47.526;10.028;2023-03-26T07:35:00;90731.75;;;5.88;84.68
63493;BME280;49638;47.526;10.028;2023-03-26T07:38:31;90729.44;;;5.91;86.04
63493;BME280;49638;47.526;10.028;2023-03-26T07:41:49;90733.88;;;5.91;86.33
63493;BME280;49638;47.526;10.028;2023-03-26T07:45:15;90746.34;;;5.84;87.51
63493;BME280;49638;47.526;10.028;2023-03-26T07:48:21;90726.25;;;5.73;85.94
63493;BME280;49638;47.526;10.028;2023-03-26T07:51:24;90731.97;;;5.86;85.86
63493;BME280;49638;47.526;10.028;2023-03-26T07:54:25;90718.53;;;5.83;85.73
63493;BME280;49638;47.526;10.028;2023-03-26T07:57:37;90715.03;;;5.77;86.36
63493;BME280;49638;47.526;10.028;2023-03-26T08:00:47;90716.31;;;5.75;86.20
63493;BME280;49638;47.526;10.028;2023-03-26T08:04:19;90732.06;;;5.75;87.42
63493;BME280;49638;47.526;10.028;2023-03-26T08:17:34;90741.81;;;5.62;86.02
63493;BME280;49638;47.526;10.028;2023-03-26T08:20:52;90744.44;;;5.62;85.17
63493;BME280;49638;47.526;10.028;2023-03-26T08:24:17;90725.34;;;5.50;86.39
63493;BME280;49638;47.526;10.028;2023-03-26T08:27:30;90723.22;;;5.47;84.93
63493;BME280;49638;47.526;10.028;2023-03-26T08:30:36;90733.69;;;5.47;85.40
63493;BME280;49638;47.526;10.028;2023-03-26T08:33:37;90744.41;;;5.45;85.61
63493;BME280;49638;47.526;10.028;2023-03-26T08:36:40;90741.00;;;5.45;85.82
63493;BME280;49638;47.526;10.028;2023-03-26T08:39:40;90740.41;;;5.43;85.96
63493;BME280;49638;47.526;10.028;2023-03-26T08:43:08;90736.38;;;5.35;86.84
63493;BME280;49638;47.526;10.028;2023-03-26T08:49:45;90744.44;;;5.17;87.52
63493;BME280;49638;47.526;10.028;2023-03-26T08:56:28;90736.38;;;5.07;87.85
63493;BME280;49638;47.526;10.028;2023-03-26T09:02:54;90737.00;;;4.97;87.02
63493;BME280;49638;47.526;10.028;2023-03-26T09:06:24;90721.16;;;4.92;88.68
63493;BME280;49638;47.526;10.028;2023-03-26T09:20:39;90688.34;;;5.01;88.61
63493;BME280;49638;47.526;10.028;2023-03-26T09:24:00;90690.38;;;5.11;88.95
63493;BME280;49638;47.526;10.028;2023-03-26T09:31:07;90688.28;;;5.13;88.34
63493;BME280;49638;47.526;10.028;2023-03-26T09:34:29;90703.31;;;5.17;87.41
63493;BME280;49638;47.526;10.028;2023-03-26T09:44:11;90678.88;;;5.29;87.12
63493;BME280;49638;47.526;10.028;2023-03-26T09:47:43;90659.03;;;5.33;87.43
63493;BME280;49638;47.526;10.028;2023-03-26T09:50:59;90637.59;;;5.36;87.36
63493;BME280;49638;47.526;10.028;2023-03-26T10:00:52;90630.22;;;5.50;86.68
63493;BME280;49638;47.526;10.028;2023-03-26T10:11:17;90667.06;;;5.77;86.74
63493;BME280;49638;47.526;10.028;2023-03-26T10:15:12;90647.84;;;5.88;86.19
63493;BME280;49638;47.526;10.028;2023-03-26T10:21:49;90644.69;;;6.08;85.48
63493;BME280;49638;47.526;10.028;2023-03-26T10:25:14;90645.03;;;6.11;85.08
63493;BME280;49638;47.526;10.028;2023-03-26T10:31:45;90643.03;;;6.19;84.12
63493;BME280;49638;47.526;10.028;2023-03-26T10:34:57;90651.44;;;6.21;85.55
63493;BME280;49638;47.526;10.028;2023-03-26T10:38:22;90698.66;;;6.21;85.98
63493;BME280;49638;47.526;10.028;2023-03-26T10:44:58;90706.00;;;6.19;86.88
63493;BME280;49638;47.526;10.028;2023-03-26T10:48:20;90701.53;;;6.19;86.14
63493;BME280;49638;47.526;10.028;2023-03-26T10:51:39;90690.25;;;6.19;86.18
63493;BME280;49638;47.526;10.028;2023-03-26T10:55:10;90692.41;;;6.22;86.61
63493;BME280;49638;47.526;10.028;2023-03-26T10:58:21;90717.91;;;6.26;86.22
63493;BME280;49638;47.526;10.028;2023-03-26T11:07:54;90753.69;;;5.99;87.18
63493;BME280;49638;47.526;10.028;2023-03-26T11:21:04;90758.03;;;5.31;87.37
63493;BME280;49638;47.526;10.028;2023-03-26T11:27:38;90762.03;;;5.33;87.57
63493;BME280;49638;47.526;10.028;2023-03-26T11:34:27;90755.59;;;5.41;87.46
63493;BME280;49638;47.526;10.028;2023-03-26T11:37:53;90744.09;;;5.42;88.84
63493;BME280;49638;47.526;10.028;2023-03-26T11:40:58;90748.06;;;5.44;87.67
63493;BME280;49638;47.526;10.028;2023-03-26T11:47:04;90728.47;;;5.47;87.57
63493;BME280;49638;47.526;10.028;2023-03-26T11:50:22;90723.28;;;5.52;87.76
63493;BME280;49638;47.526;10.028;2023-03-26T11:53:28;90708.19;;;5.59;87.62
63493;BME280;49638;47.526;10.028;2023-03-26T11:59:37;90704.53;;;5.77;88.29
63493;BME280;49638;47.526;10.028;2023-03-26T12:02:40;90683.19;;;5.85;87.67
63493;BME280;49638;47.526;10.028;2023-03-26T12:05:50;90671.75;;;5.91;88.13
63493;BME280;49638;47.526;10.028;2023-03-26T12:08:50;90651.56;;;5.92;87.65
63493;BME280;49638;47.526;10.028;2023-03-26T12:11:58;90652.25;;;6.04;87.65
63493;BME280;49638;47.526;10.028;2023-03-26T12:14:59;90631.91;;;6.11;87.11
63493;BME280;49638;47.526;10.028;2023-03-26T12:18:22;90650.47;;;6.27;87.89
63493;BME280;49638;47.526;10.028;2023-03-26T12:21:23;90649.03;;;6.36;86.83
63493;BME280;49638;47.526;10.028;2023-03-26T12:24:27;90647.84;;;6.49;87.35
63493;BME280;49638;47.526;10.028;2023-03-26T12:27:29;90644.53;;;6.58;87.35
63493;BME280;49638;47.526;10.028;2023-03-26T12:30:31;90640.03;;;6.54;87.66
63493;BME280;49638;47.526;10.028;2023-03-26T12:33:38;90645.59;;;6.57;87.60
63493;BME280;49638;47.526;10.028;2023-03-26T12:36:47;90624.41;;;6.64;88.14
63493;BME280;49638;47.526;10.028;2023-03-26T12:40:04;90629.00;;;6.79;87.90
63493;BME280;49638;47.526;10.028;2023-03-26T12:43:24;90620.72;;;6.87;88.52
63493;BME280;49638;47.526;10.028;2023-03-26T12:49:28;90610.53;;;6.96;86.80
63493;BME280;49638;47.526;10.028;2023-03-26T12:55:42;90604.50;;;6.95;86.00
63493;BME280;49638;47.526;10.028;2023-03-26T12:58:51;90605.09;;;7.02;85.55
63493;BME280;49638;47.526;10.028;2023-03-26T13:12:07;90578.56;;;7.36;83.98
63493;BME280;49638;47.526;10.028;2023-03-26T13:15:17;90579.94;;;7.44;84.70
63493;BME280;49638;47.526;10.028;2023-03-26T13:18:29;90571.88;;;7.55;83.96
63493;BME280;49638;47.526;10.028;2023-03-26T13:25:37;90566.22;;;7.74;84.19
63493;BME280;49638;47.526;10.028;2023-03-26T13:35:55;90553.84;;;7.74;82.02
63493;BME280;49638;47.526;10.028;2023-03-26T13:39:08;90530.94;;;7.70;81.10
63493;BME280;49638;47.526;10.028;2023-03-26T13:43:04;90518.03;;;7.63;83.08
63493;BME280;49638;47.526;10.028;2023-03-26T13:46:08;90507.50;;;7.63;82.53
63493;BME280;49638;47.526;10.028;2023-03-26T13:49:21;90494.63;;;7.62;80.85
63493;BME280;49638;47.526;10.028;2023-03-26T13:55:46;90481.44;;;7.51;82.12
63493;BME280;49638;47.526;10.028;2023-03-26T13:59:00;90476.56;;;7.33;79.90
63493;BME280;49638;47.526;10.028;2023-03-26T14:05:38;90508.22;;;7.11;82.34
63493;BME280;49638;47.526;10.028;2023-03-26T14:08:44;90511.00;;;6.99;83.51
63493;BME280;49638;47.526;10.028;2023-03-26T14:15:21;90509.66;;;6.92;84.80
63493;BME280;49638;47.526;10.028;2023-03-26T14:18:36;90539.50;;;6.80;86.17
63493;BME280;49638;47.526;10.028;2023-03-26T14:31:54;90550.59;;;6.11;85.93
63493;BME280;49638;47.526;10.028;2023-03-26T14:35:27;90543.44;;;6.07;85.05
63493;BME280;49638;47.526;10.028;2023-03-26T14:38:53;90527.00;;;6.11;87.00
63493;BME280;49638;47.526;10.028;2023-03-26T14:42:02;90506.13;;;6.22;85.70
63493;BME280;49638;47.526;10.028;2023-03-26T14:49:18;90495.59;;;6.49;87.00
63493;BME280;49638;47.526;10.028;2023-03-26T14:55:50;90481.84;;;6.63;87.13
63493;BME280;49638;47.526;10.028;2023-03-26T14:59:27;90472.50;;;6.78;86.60
63493;BME280;49638;47.526;10.028;2023-03-26T15:06:05;90456.59;;;7.32;85.75
63493;BME280;49638;47.526;10.028;2023-03-26T15:13:09;90463.59;;;7.64;83.62
63493;BME280;49638;47.526;10.028;2023-03-26T15:23:19;90453.75;;;7.96;83.34
63493;BME280;49638;47.526;10.028;2023-03-26T15:33:25;90439.50;;;7.82;80.99
63493;BME280;49638;47.526;10.028;2023-03-26T15:43:11;90434.19;;;7.72;81.01
63493;BME280;49638;47.526;10.028;2023-03-26T15:46:22;90439.19;;;7.68;79.84
63493;BME280;49638;47.526;10.028;2023-03-26T15:49:42;90469.63;;;7.64;80.45
63493;BME280;49638;47.526;10.028;2023-03-26T15:59:51;90585.41;;;6.78;82.23
63493;BME280;49638;47.526;10.028;2023-03-26T16:09:36;90651.63;;;5.80;83.08
63493;BME280;49638;47.526;10.028;2023-03-26T16:22:37;90651.88;;;4.66;84.49
63493;BME280;49638;47.526;10.028;2023-03-26T16:25:55;90647.78;;;4.58;86.03
63493;BME280;49638;47.526;10.028;2023-03-26T16:32:27;90638.53;;;4.39;86.48
63493;BME280;49638;47.526;10.028;2023-03-26T16:35:40;90654.19;;;4.50;85.87
63493;BME280;49638;47.526;10.028;2023-03-26T16:38:46;90654.50;;;4.54;85.47
63493;BME280;49638;47.526;10.028;2023-03-26T16:42:00;90662.13;;;4.56;85.88
63493;BME280;49638;47.526;10.028;2023-03-26T16:45:15;90658.25;;;4.58;87.00
63493;BME280;49638;47.526;10.028;2023-03-26T16:48:28;90658.03;;;4.60;86.97
63493;BME280;49638;47.526;10.028;2023-03-26T16:55:01;90643.13;;;4.60;87.63
63493;BME280;49638;47.526;10.028;2023-03-26T16:58:12;90636.06;;;4.61;87.77
63493;BME280;49638;47.526;10.028;2023-03-26T17:04:43;90645.16;;;4.58;87.15
63493;BME280;49638;47.526;10.028;2023-03-26T17:07:57;90642.94;;;4.50;87.43
63493;BME280;49638;47.526;10.028;2023-03-26T17:11:21;90644.84;;;4.55;87.30
63493;BME280;49638;47.526;10.028;2023-03-26T17:14:37;90628.13;;;4.56;87.45
63493;BME280;49638;47.526;10.028;2023-03-26T17:18:02;90618.34;;;4.51;87.66
63493;BME280;49638;47.526;10.028;2023-03-26T17:21:25;90631.28;;;4.58;87.08
63493;BME280;49638;47.526;10.028;2023-03-26T17:24:41;90625.03;;;4.59;86.09
63493;BME280;49638;47.526;10.028;2023-03-26T17:27:50;90631.63;;;4.61;86.47
63493;BME280;49638;47.526;10.028;2023-03-26T17:31:04;90629.00;;;4.61;85.94
63493;BME280;49638;47.526;10.028;2023-03-26T17:37:40;90649.59;;;4.58;85.66
63493;BME280;49638;47.526;10.028;2023-03-26T17:40:50;90651.88;;;4.54;85.62
63493;BME280;49638;47.526;10.028;2023-03-26T17:43:55;90676.38;;;4.48;86.27
63493;BME280;49638;47.526;10.028;2023-03-26T17:46:55;90695.75;;;4.23;86.43
63493;BME280;49638;47.526;10.028;2023-03-26T17:50:20;90707.81;;;4.13;86.25
63493;BME280;49638;47.526;10.028;2023-03-26T17:53:27;90707.25;;;3.99;86.96
63493;BME280;49638;47.526;10.028;2023-03-26T17:56:29;90697.25;;;3.96;86.93
63493;BME280;49638;47.526;10.028;2023-03-26T17:59:31;90688.63;;;3.84;87.36
63493;BME280;49638;47.526;10.028;2023-03-26T18:02:36;90663.63;;;3.76;87.35
63493;BME280;49638;47.526;10.028;2023-03-26T18:05:40;90642.84;;;3.69;87.42
63493;BME280;49638;47.526;10.028;2023-03-26T18:08:52;90646.94;;;3.65;87.22
63493;BME280;49638;47.526;10.028;2023-03-26T18:15:35;90647.06;;;3.70;86.96
63493;BME280;49638;47.526;10.028;2023-03-26T18:18:41;90631.16;;;3.72;86.74
63493;BME280;49638;47.526;10.028;2023-03-26T18:21:47;90641.59;;;3.72;85.59
63493;BME280;49638;47.526;10.028;2023-03-26T18:24:49;90629.31;;;3.72;85.48
63493;BME280;49638;47.526;10.028;2023-03-26T18:27:51;90626.50;;;3.62;85.27
63493;BME280;49638;47.526;10.028;2023-03-26T18:30:51;90650.69;;;3.69;84.73
63493;BME280;49638;47.526;10.028;2023-03-26T18:33:56;90643.28;;;3.66;84.63
63493;BME280;49638;47.526;10.028;2023-03-26T18:40:39;90641.63;;;3.60;84.92
63493;BME280;49638;47.526;10.028;2023-03-26T18:43:40;90638.09;;;3.54;84.21
63493;BME280;49638;47.526;10.028;2023-03-26T18:46:41;90626.72;;;3.49;84.38
63493;BME280;49638;47.526;10.028;2023-03-26T18:49:43;90639.56;;;3.50;84.62
63493;BME280;49638;47.526;10.028;2023-03-26T18:52:45;90634.66;;;3.42;84.74
63493;BME280;49638;47.526;10.028;2023-03-26T18:55:46;90652.03;;;3.48;85.10
63493;BME280;49638;47.526;10.028;2023-03-26T18:58:51;90626.50;;;3.39;84.63
63493;BME280;49638;47.526;10.028;2023-03-26T19:01:51;90636.63;;;3.47;84.76
63493;BME280;49638;47.526;10.028;2023-03-26T19:04:52;90633.31;;;3.51;84.62
63493;BME280;49638;47.526;10.028;2023-03-26T19:07:54;90632.72;;;3.49;84.64
63493;BME280;49638;47.526;10.028;2023-03-26T19:10:55;90633.75;;;3.48;84.52
63493;BME280;49638;47.526;10.028;2023-03-26T19:14:13;90628.09;;;3.51;84.78
63493;BME280;49638;47.526;10.028;2023-03-26T19:17:14;90642.28;;;3.55;84.09
63493;BME280;49638;47.526;10.028;2023-03-26T19:20:22;90649.91;;;3.57;84.41
63493;BME280;49638;47.526;10.028;2023-03-26T19:23:32;90641.59;;;3.48;84.32
63493;BME280;49638;47.526;10.028;2023-03-26T19:26:34;90633.41;;;3.45;84.24
63493;BME280;49638;47.526;10.028;2023-03-26T19:29:35;90637.63;;;3.58;84.23
63493;BME280;49638;47.526;10.028;2023-03-26T19:32:35;90631.63;;;3.57;84.16
63493;BME280;49638;47.526;10.028;2023-03-26T19:35:37;90619.47;;;3.51;84.66
63493;BME280;49638;47.526;10.028;2023-03-26T19:41:42;90637.63;;;3.69;84.83
63493;BME280;49638;47.526;10.028;2023-03-26T19:44:43;90635.00;;;3.69;84.80
63493;BME280;49638;47.526;10.028;2023-03-26T19:47:45;90616.03;;;3.62;84.35
63493;BME280;49638;47.526;10.028;2023-03-26T19:51:01;90625.13;;;3.71;84.69
63493;BME280;49638;47.526;10.028;2023-03-26T19:54:17;90612.63;;;3.73;83.83
63493;BME280;49638;47.526;10.028;2023-03-26T19:57:19;90600.03;;;3.70;84.17
63493;BME280;49638;47.526;10.028;2023-03-26T20:00:20;90596.84;;;3.68;83.68
63493;BME280;49638;47.526;10.028;2023-03-26T20:03:41;90612.72;;;3.78;84.58
63493;BME280;49638;47.526;10.028;2023-03-26T20:06:43;90599.09;;;3.76;83.62
63493;BME280;49638;47.526;10.028;2023-03-26T20:09:43;90591.72;;;3.73;83.71
63493;BME280;49638;47.526;10.028;2023-03-26T20:12:44;90583.41;;;3.76;83.78
63493;BME280;49638;47.526;10.028;2023-03-26T20:15:48;90601.59;;;3.83;83.33
63493;BME280;49638;47.526;10.028;2023-03-26T20:18:52;90599.53;;;3.85;83.50
63493;BME280;49638;47.526;10.028;2023-03-26T20:21:52;90587.84;;;3.76;84.00
63493;BME280;49638;47.526;10.028;2023-03-26T20:24:53;90599.44;;;3.80;84.26